createdAt,value
2022-12-09T00:02:06.243Z,6.09
2022-12-09T00:04:35.459Z,6.05
2022-12-09T00:07:03.142Z,6.26
2022-12-09T00:09:30.822Z,6.40
2022-12-09T00:11:58.551Z,6.59
2022-12-09T00:14:26.158Z,6.48
2022-12-09T00:16:53.706Z,6.48
2022-12-09T00:19:21.238Z,6.51
2022-12-09T00:21:48.793Z,6.58
2022-12-09T00:24:16.545Z,6.54
2022-12-09T00:26:44.078Z,6.55
2022-12-09T00:29:12.201Z,6.49
2022-12-09T00:31:40.095Z,6.46
2022-12-09T00:34:11.421Z,6.51
2022-12-09T00:36:40.000Z,6.58
2022-12-09T00:39:07.749Z,6.59
2022-12-09T00:41:35.791Z,6.47
2022-12-09T00:44:04.266Z,6.44
2022-12-09T00:46:32.392Z,6.57
2022-12-09T00:49:00.127Z,6.51
2022-12-09T00:51:27.792Z,6.48
2022-12-09T00:53:56.240Z,6.23
2022-12-09T00:56:29.041Z,6.33
2022-12-09T00:58:58.048Z,6.28
2022-12-09T01:01:27.576Z,6.25
2022-12-09T01:03:55.462Z,6.30
2022-12-09T01:06:25.686Z,6.13
2022-12-09T01:08:54.206Z,6.38
2022-12-09T01:11:25.928Z,6.33
2022-12-09T01:13:54.695Z,6.18
2022-12-09T01:16:27.743Z,6.19
2022-12-09T01:18:59.567Z,6.47
2022-12-09T01:21:30.705Z,6.57
2022-12-09T01:23:58.301Z,6.67
2022-12-09T01:26:26.451Z,6.72
2022-12-09T01:28:55.748Z,6.70
2022-12-09T01:31:24.856Z,6.74
2022-12-09T01:33:55.368Z,6.65
2022-12-09T01:36:26.855Z,6.47
2022-12-09T01:38:55.041Z,6.52
2022-12-09T01:41:23.329Z,6.53
2022-12-09T01:44:14.792Z,6.55
2022-12-09T01:46:43.624Z,6.14
2022-12-09T01:49:19.613Z,6.10
2022-12-09T01:51:54.005Z,6.12
2022-12-09T01:54:22.062Z,6.21
2022-12-09T01:56:50.246Z,6.48
2022-12-09T01:59:18.020Z,6.44
2022-12-09T02:01:50.262Z,6.52
2022-12-09T02:04:18.178Z,6.38
2022-12-09T02:06:46.471Z,6.52
2022-12-09T02:09:15.603Z,6.61
2022-12-09T02:12:01.127Z,6.55
2022-12-09T02:15:01.488Z,6.52
2022-12-09T02:17:37.804Z,6.33
2022-12-09T02:20:10.436Z,6.56
2022-12-09T02:22:54.805Z,6.47
2022-12-09T02:25:34.782Z,6.49
2022-12-09T02:28:12.963Z,6.49
2022-12-09T02:30:57.864Z,6.38
2022-12-09T02:33:30.268Z,6.45
2022-12-09T02:36:05.717Z,6.28
2022-12-09T02:38:34.032Z,6.17
2022-12-09T02:41:22.048Z,6.25
2022-12-09T02:44:03.195Z,6.44
2022-12-09T02:46:36.285Z,6.57
2022-12-09T02:49:08.066Z,6.47
2022-12-09T02:51:42.334Z,6.68
2022-12-09T02:54:16.530Z,6.43
2022-12-09T02:56:53.551Z,6.32
2022-12-09T02:59:22.205Z,6.52
2022-12-09T03:02:18.772Z,6.75
2022-12-09T03:05:04.509Z,6.79
2022-12-09T03:08:15.126Z,6.72
2022-12-09T03:10:59.899Z,6.81
2022-12-09T03:13:47.693Z,6.60
2022-12-09T03:16:44.245Z,6.48
2022-12-09T03:19:23.854Z,6.55
2022-12-09T03:21:56.685Z,6.50
2022-12-09T03:24:53.117Z,6.51
2022-12-09T03:27:25.476Z,6.65
2022-12-09T03:29:55.192Z,6.82
2022-12-09T03:32:26.901Z,6.83
2022-12-09T03:35:01.790Z,6.92
2022-12-09T03:37:32.232Z,6.71
2022-12-09T03:40:01.379Z,6.84
2022-12-09T03:42:39.827Z,6.65
2022-12-09T03:45:11.679Z,6.63
2022-12-09T03:47:40.039Z,6.79
2022-12-09T03:50:09.361Z,6.76
2022-12-09T03:52:51.775Z,6.81
2022-12-09T03:55:33.838Z,6.73
2022-12-09T03:58:03.684Z,6.51
2022-12-09T04:00:31.632Z,6.67
2022-12-09T04:02:59.679Z,6.77
2022-12-09T04:05:27.781Z,6.82
2022-12-09T04:07:55.395Z,6.77
2022-12-09T04:10:23.209Z,6.77
2022-12-09T04:12:51.262Z,6.75
2022-12-09T04:15:18.954Z,6.47
2022-12-09T04:17:46.929Z,6.39
2022-12-09T04:20:14.887Z,6.64
2022-12-09T04:22:43.258Z,6.62
2022-12-09T04:25:11.035Z,6.43
2022-12-09T04:27:38.948Z,6.51
2022-12-09T04:30:07.451Z,6.63
2022-12-09T04:32:35.540Z,6.69
2022-12-09T04:35:03.676Z,6.75
2022-12-09T04:37:31.639Z,6.54
2022-12-09T04:39:59.168Z,6.49
2022-12-09T04:42:28.613Z,6.67
2022-12-09T04:44:56.578Z,6.74
2022-12-09T04:47:24.417Z,6.59
2022-12-09T04:49:52.370Z,6.55
2022-12-09T04:52:21.576Z,6.59
2022-12-09T04:54:51.082Z,6.60
2022-12-09T04:57:19.508Z,6.71
2022-12-09T04:59:47.173Z,6.57
2022-12-09T05:02:14.995Z,6.52
2022-12-09T05:04:43.040Z,6.72
2022-12-09T05:07:11.854Z,6.67
2022-12-09T05:09:39.783Z,6.75
2022-12-09T05:12:08.418Z,6.61
2022-12-09T05:14:36.293Z,6.56
2022-12-09T05:17:30.510Z,6.65
2022-12-09T05:20:17.132Z,6.53
2022-12-09T05:22:47.829Z,6.72
2022-12-09T05:25:15.723Z,6.66
2022-12-09T05:27:43.410Z,6.62
2022-12-09T05:30:11.813Z,6.59
2022-12-09T05:32:39.971Z,6.76
2022-12-09T05:35:08.605Z,6.68
2022-12-09T05:37:36.296Z,6.45
2022-12-09T05:40:06.674Z,6.50
2022-12-09T05:42:40.916Z,6.57
2022-12-09T05:45:09.026Z,6.63
2022-12-09T05:47:37.515Z,6.52
2022-12-09T05:50:08.506Z,6.53
2022-12-09T05:52:37.808Z,6.53
2022-12-09T05:55:07.906Z,6.70
2022-12-09T05:57:37.272Z,6.69
2022-12-09T06:00:06.955Z,6.55
2022-12-09T06:02:40.037Z,6.52
2022-12-09T06:05:08.723Z,6.63
2022-12-09T06:07:36.798Z,6.76
2022-12-09T06:10:05.412Z,6.70
2022-12-09T06:12:33.924Z,6.84
2022-12-09T06:15:02.075Z,6.64
2022-12-09T06:17:30.263Z,6.69
2022-12-09T06:19:58.229Z,6.59
2022-12-09T06:22:25.888Z,6.74
2022-12-09T06:25:07.466Z,6.52
2022-12-09T06:27:35.560Z,6.44
2022-12-09T06:30:03.521Z,6.45
2022-12-09T06:32:32.180Z,6.68
2022-12-09T06:35:00.379Z,6.72
2022-12-09T06:37:35.575Z,6.68
2022-12-09T06:40:05.410Z,6.64
2022-12-09T06:42:33.107Z,6.63
2022-12-09T06:45:00.751Z,6.61
2022-12-09T06:47:28.413Z,6.44
2022-12-09T06:50:04.363Z,6.41
2022-12-09T06:52:34.349Z,6.36
2022-12-09T06:55:53.039Z,6.66
2022-12-09T06:59:03.406Z,6.72
2022-12-09T07:02:19.791Z,6.64
2022-12-09T07:05:15.797Z,6.72
2022-12-09T07:07:52.333Z,6.69
2022-12-09T07:10:21.039Z,6.74
2022-12-09T07:12:49.446Z,6.70
2022-12-09T07:15:17.128Z,6.28
2022-12-09T07:17:44.893Z,6.57
2022-12-09T07:20:13.368Z,6.72
2022-12-09T07:22:41.376Z,6.85
2022-12-09T07:25:09.904Z,6.83
2022-12-09T07:27:38.128Z,6.90
2022-12-09T07:30:06.512Z,6.57
2022-12-09T07:32:34.519Z,6.75
2022-12-09T07:35:02.348Z,6.73
2022-12-09T07:37:30.457Z,6.90
2022-12-09T07:39:58.347Z,6.94
2022-12-09T07:42:26.298Z,6.76
2022-12-09T07:44:55.286Z,6.58
2022-12-09T07:47:23.166Z,6.84
2022-12-09T07:49:51.403Z,6.70
2022-12-09T07:52:19.804Z,6.95
2022-12-09T07:54:47.335Z,6.71
2022-12-09T07:57:15.025Z,6.82
2022-12-09T07:59:43.404Z,6.77
2022-12-09T08:02:11.288Z,6.70
2022-12-09T08:04:39.509Z,6.75
2022-12-09T08:07:07.407Z,6.93
2022-12-09T08:09:35.633Z,6.94
2022-12-09T08:12:03.662Z,6.86
2022-12-09T08:14:31.684Z,6.87
2022-12-09T08:16:59.537Z,6.78
2022-12-09T08:19:27.304Z,6.70
2022-12-09T08:21:55.521Z,6.71
2022-12-09T08:24:23.520Z,6.65
2022-12-09T08:26:51.467Z,6.34
2022-12-09T08:29:20.062Z,6.19
2022-12-09T08:31:48.442Z,6.31
2022-12-09T08:34:16.920Z,6.12
2022-12-09T08:36:45.160Z,6.08
2022-12-09T08:39:14.000Z,6.29
2022-12-09T08:41:43.851Z,5.94
2022-12-09T08:44:42.322Z,6.17
2022-12-09T08:47:13.918Z,6.30
2022-12-09T08:49:41.951Z,6.26
2022-12-09T08:52:10.135Z,6.39
2022-12-09T08:54:38.158Z,6.48
2022-12-09T08:57:05.855Z,6.56
2022-12-09T08:59:33.499Z,6.61
2022-12-09T09:02:01.318Z,6.72
2022-12-09T09:04:31.901Z,6.88
2022-12-09T09:07:00.488Z,6.84
2022-12-09T09:09:28.411Z,7.13
2022-12-09T09:11:56.141Z,7.02
2022-12-09T09:14:24.316Z,6.92
2022-12-09T09:16:52.109Z,6.83
2022-12-09T09:19:23.421Z,6.88
2022-12-09T09:21:51.879Z,7.22
2022-12-09T09:24:23.060Z,7.15
2022-12-09T09:26:52.586Z,7.29
2022-12-09T09:29:22.840Z,7.14
2022-12-09T09:31:54.546Z,7.15
2022-12-09T09:34:23.037Z,7.11
2022-12-09T09:36:51.533Z,7.23
2022-12-09T09:39:20.132Z,7.00
2022-12-09T09:41:51.810Z,7.01
2022-12-09T09:44:19.685Z,7.00
2022-12-09T09:46:49.996Z,7.02
2022-12-09T09:49:46.235Z,7.03
2022-12-09T09:52:19.072Z,7.13
2022-12-09T09:54:47.304Z,7.14
2022-12-09T09:57:17.534Z,7.19
2022-12-09T10:00:09.349Z,7.10
2022-12-09T10:02:48.369Z,7.03
2022-12-09T10:05:32.004Z,7.12
2022-12-09T10:08:29.024Z,6.72
2022-12-09T10:11:06.946Z,6.73
2022-12-09T10:13:45.072Z,6.81
2022-12-09T10:16:25.015Z,6.66
2022-12-09T10:19:09.645Z,6.65
2022-12-09T10:21:42.471Z,6.77
2022-12-09T10:24:40.747Z,6.78
2022-12-09T10:27:16.648Z,7.04
2022-12-09T10:29:56.800Z,6.91
2022-12-09T10:32:30.968Z,6.72
2022-12-09T10:35:00.408Z,6.65
2022-12-09T10:37:34.024Z,6.74
2022-12-09T10:40:07.901Z,6.90
2022-12-09T10:43:08.056Z,6.98
2022-12-09T10:46:16.748Z,7.06
2022-12-09T10:48:40.417Z,7.09
2022-12-09T10:51:14.049Z,7.23
2022-12-09T10:53:54.977Z,6.93
2022-12-09T10:56:29.890Z,6.77
2022-12-09T10:59:27.968Z,7.31
2022-12-09T11:02:20.659Z,7.29
2022-12-09T11:04:49.634Z,7.11
2022-12-09T11:07:23.889Z,7.34
2022-12-09T11:09:54.463Z,7.43
2022-12-09T11:12:30.990Z,7.55
2022-12-09T11:15:26.638Z,7.30
2022-12-09T11:18:02.561Z,7.10
2022-12-09T11:20:34.886Z,7.27
2022-12-09T11:23:17.149Z,7.06
2022-12-09T11:26:06.158Z,7.05
2022-12-09T11:29:04.747Z,6.88
2022-12-09T11:31:41.135Z,6.77
2022-12-09T11:34:25.172Z,6.97
2022-12-09T11:36:56.621Z,7.16
2022-12-09T11:39:31.115Z,6.74
2022-12-09T11:42:20.859Z,6.84
2022-12-09T11:45:01.194Z,6.93
2022-12-09T11:47:50.413Z,6.99
2022-12-09T11:50:24.253Z,7.14
2022-12-09T11:53:11.260Z,6.81
2022-12-09T11:55:46.778Z,6.71
2022-12-09T11:58:16.383Z,6.82
2022-12-09T12:01:06.444Z,6.89
2022-12-09T12:04:10.582Z,6.84
2022-12-09T12:07:05.500Z,6.81
2022-12-09T12:09:54.612Z,6.78
2022-12-09T12:12:43.252Z,6.23
2022-12-09T12:15:17.929Z,6.63
2022-12-09T12:21:30.581Z,7.04
2022-12-09T12:24:22.683Z,7.68
2022-12-09T12:26:55.790Z,7.57
2022-12-09T12:29:39.347Z,7.54
2022-12-09T12:32:24.851Z,7.42
2022-12-09T12:34:58.010Z,7.21
2022-12-09T12:37:34.736Z,7.11
2022-12-09T12:40:27.365Z,7.12
2022-12-09T12:43:47.483Z,6.99
2022-12-09T12:46:34.239Z,7.01
2022-12-09T12:49:16.576Z,7.21
2022-12-09T12:52:03.240Z,7.28
2022-12-09T12:54:58.279Z,7.34
2022-12-09T12:57:47.323Z,7.59
2022-12-09T13:00:22.233Z,7.53
2022-12-09T13:03:18.590Z,7.75
2022-12-09T13:05:52.787Z,7.22
2022-12-09T13:08:46.514Z,7.12
2022-12-09T13:11:20.029Z,7.25
2022-12-09T13:13:53.915Z,7.38
2022-12-09T13:16:28.181Z,7.52
2022-12-09T13:19:06.465Z,7.16
2022-12-09T13:21:34.956Z,7.11
2022-12-09T13:24:26.305Z,7.19
2022-12-09T13:27:06.205Z,7.37
2022-12-09T13:29:58.075Z,7.31
2022-12-09T13:32:28.450Z,7.51
2022-12-09T13:35:06.750Z,7.52
2022-12-09T13:37:55.141Z,7.33
2022-12-09T13:40:28.456Z,7.33
2022-12-09T13:43:20.409Z,7.33
2022-12-09T13:45:54.777Z,7.26
2022-12-09T13:48:22.307Z,7.20
2022-12-09T13:50:49.804Z,7.00
2022-12-09T13:53:20.279Z,7.21
2022-12-09T13:55:59.299Z,7.33
2022-12-09T13:58:33.623Z,7.07
2022-12-09T14:01:13.539Z,7.28
2022-12-09T14:03:56.373Z,7.24
2022-12-09T14:06:30.917Z,7.28
2022-12-09T14:09:39.326Z,7.48
2022-12-09T14:12:14.210Z,7.55
2022-12-09T14:14:51.609Z,7.67
2022-12-09T14:18:41.133Z,7.58
2022-12-09T14:21:20.746Z,7.56
2022-12-09T14:25:03.123Z,7.40
2022-12-09T14:27:32.199Z,7.44
2022-12-09T14:35:04.769Z,7.66
2022-12-09T14:46:25.064Z,7.58
2022-12-09T14:49:25.141Z,7.36
2022-12-09T14:56:50.581Z,7.59
2022-12-09T14:59:34.144Z,7.48
2022-12-09T15:03:08.733Z,7.38
2022-12-09T15:12:46.501Z,7.31
2022-12-09T15:15:41.758Z,7.05
2022-12-09T15:18:24.497Z,7.28
2022-12-09T15:20:55.883Z,7.40
2022-12-09T15:23:47.052Z,7.51
2022-12-09T15:26:25.882Z,7.49
2022-12-09T15:28:56.222Z,7.49
2022-12-09T15:31:27.063Z,7.20
2022-12-09T15:34:08.039Z,7.24
2022-12-09T15:36:40.300Z,7.37
2022-12-09T15:39:53.160Z,7.33
2022-12-09T15:42:27.333Z,7.57
2022-12-09T15:45:11.860Z,7.52
2022-12-09T15:47:43.191Z,7.38
2022-12-09T15:50:22.569Z,7.46
2022-12-09T15:53:02.893Z,7.01
2022-12-09T15:55:38.352Z,6.62
2022-12-09T15:58:06.950Z,6.91
2022-12-09T16:00:42.383Z,6.87
2022-12-09T16:03:09.872Z,7.12
2022-12-09T16:05:41.790Z,7.12
2022-12-09T16:08:10.407Z,7.09
2022-12-09T16:10:56.624Z,6.86
2022-12-09T16:13:27.901Z,6.99
2022-12-09T16:15:58.372Z,7.05
2022-12-09T16:18:46.905Z,7.11
2022-12-09T16:21:40.598Z,6.97
2022-12-09T16:24:13.059Z,7.05
2022-12-09T16:26:46.694Z,7.07
2022-12-09T16:29:28.085Z,7.15
2022-12-09T16:32:20.285Z,7.45
2022-12-09T16:34:52.111Z,7.45
2022-12-09T16:37:32.501Z,7.54
2022-12-09T16:40:03.021Z,7.52
2022-12-09T16:42:36.583Z,7.60
2022-12-09T16:45:31.539Z,7.53
2022-12-09T16:47:59.806Z,7.56
2022-12-09T16:50:33.144Z,7.38
2022-12-09T16:53:16.387Z,7.55
2022-12-09T16:56:01.659Z,7.51
2022-12-09T16:58:31.040Z,7.51
2022-12-09T17:01:00.247Z,7.58
2022-12-09T17:03:40.182Z,7.69
2022-12-09T17:06:10.789Z,7.56
2022-12-09T17:08:38.393Z,7.35
2022-12-09T17:11:06.214Z,7.30
2022-12-09T17:13:34.063Z,7.15
2022-12-09T17:16:01.927Z,7.06
2022-12-09T17:18:29.856Z,6.95
2022-12-09T17:21:13.668Z,6.76
2022-12-09T17:23:46.758Z,6.90
2022-12-09T17:26:16.880Z,6.92
2022-12-09T17:28:45.064Z,6.92
2022-12-09T17:31:15.836Z,7.01
2022-12-09T17:33:43.972Z,7.04
2022-12-09T17:36:13.677Z,6.84
2022-12-09T17:38:41.434Z,7.00
2022-12-09T17:41:13.359Z,7.05
2022-12-09T17:43:40.867Z,7.13
2022-12-09T17:46:10.461Z,6.92
2022-12-09T17:48:40.138Z,6.93
2022-12-09T17:51:10.395Z,7.04
2022-12-09T17:53:40.148Z,7.06
2022-12-09T17:56:26.518Z,7.06
2022-12-09T17:59:29.574Z,7.28
2022-12-09T18:01:57.103Z,7.29
2022-12-09T18:04:24.676Z,7.47
2022-12-09T18:06:52.180Z,7.42
2022-12-09T18:09:20.037Z,7.34
2022-12-09T18:11:48.836Z,7.45
2022-12-09T18:14:16.560Z,7.50
2022-12-09T18:16:46.546Z,7.36
2022-12-09T18:19:16.642Z,7.22
2022-12-09T18:21:45.166Z,7.20
2022-12-09T18:24:13.347Z,7.15
2022-12-09T18:26:42.284Z,7.07
2022-12-09T18:29:11.805Z,7.29
2022-12-09T18:31:39.807Z,7.21
2022-12-09T18:34:07.695Z,7.44
2022-12-09T18:36:35.652Z,7.42
2022-12-09T18:39:04.439Z,7.44
2022-12-09T18:41:31.992Z,7.42
2022-12-09T18:44:03.136Z,7.46
2022-12-09T18:46:36.593Z,7.39
2022-12-09T18:49:11.045Z,7.48
2022-12-09T18:51:39.851Z,7.34
2022-12-09T18:54:08.269Z,7.32
2022-12-09T18:56:37.411Z,7.30
2022-12-09T18:59:06.881Z,7.37
2022-12-09T19:01:39.919Z,7.44
2022-12-09T19:04:23.037Z,7.40
2022-12-09T19:06:52.538Z,7.29
2022-12-09T19:09:25.596Z,7.30
2022-12-09T19:11:53.427Z,7.53
2022-12-09T19:14:23.099Z,7.62
2022-12-09T19:16:52.115Z,7.48
2022-12-09T19:19:26.122Z,7.53
2022-12-09T19:21:54.811Z,7.35
2022-12-09T19:24:25.811Z,7.58
2022-12-09T19:26:55.063Z,7.34
2022-12-09T19:29:24.793Z,7.65
2022-12-09T19:31:53.870Z,7.68
2022-12-09T19:34:24.679Z,7.63
2022-12-09T19:36:54.469Z,7.28
2022-12-09T19:39:24.294Z,7.24
2022-12-09T19:41:51.985Z,7.35
2022-12-09T19:44:44.165Z,7.41
2022-12-09T19:47:08.507Z,7.50
2022-12-09T19:49:36.387Z,7.36
2022-12-09T19:52:04.091Z,7.41
2022-12-09T19:54:31.836Z,7.49
2022-12-09T19:56:59.579Z,7.50
2022-12-09T19:59:27.891Z,7.34
2022-12-09T20:01:55.813Z,7.53
2022-12-09T20:04:48.032Z,7.51
2022-12-09T20:07:13.230Z,7.47
2022-12-09T20:09:40.833Z,7.32
2022-12-09T20:12:08.555Z,7.31
2022-12-09T20:14:36.246Z,7.53
2022-12-09T20:17:03.843Z,7.49
2022-12-09T20:19:31.615Z,7.52
2022-12-09T20:21:59.257Z,7.67
2022-12-09T20:24:26.976Z,7.57
2022-12-09T20:26:56.117Z,7.37
2022-12-09T20:29:23.801Z,7.45
2022-12-09T20:31:51.687Z,7.51
2022-12-09T20:34:19.401Z,7.62
2022-12-09T20:36:47.313Z,7.59
2022-12-09T20:39:19.144Z,7.37
2022-12-09T20:41:48.435Z,7.41
2022-12-09T20:44:17.335Z,7.18
2022-12-09T20:46:47.834Z,7.30
2022-12-09T20:49:15.577Z,7.23
2022-12-09T20:51:48.704Z,7.23
2022-12-09T20:54:16.489Z,7.20
2022-12-09T20:56:44.206Z,6.99
2022-12-09T20:59:13.752Z,7.04
2022-12-09T21:01:42.275Z,6.98
2022-12-09T21:04:09.950Z,6.90
2022-12-09T21:06:40.396Z,6.86
2022-12-09T21:09:14.977Z,7.01
2022-12-09T21:11:42.592Z,7.23
2022-12-09T21:14:11.059Z,7.25
2022-12-09T21:16:41.425Z,7.14
2022-12-09T21:19:12.580Z,7.13
2022-12-09T21:21:42.182Z,7.39
2022-12-09T21:24:11.845Z,7.40
2022-12-09T21:26:40.947Z,7.27
2022-12-09T21:29:11.075Z,7.38
2022-12-09T21:31:41.181Z,7.39
2022-12-09T21:34:10.702Z,7.26
2022-12-09T21:36:41.562Z,7.11
2022-12-09T21:39:12.244Z,7.02
2022-12-09T21:41:40.064Z,7.09
2022-12-09T21:44:07.919Z,7.09
2022-12-09T21:46:37.202Z,7.28
2022-12-09T21:49:06.582Z,7.28
2022-12-09T21:51:35.203Z,7.24
2022-12-09T21:54:03.273Z,7.20
2022-12-09T21:56:33.660Z,7.35
2022-12-09T21:59:01.786Z,7.39
2022-12-09T22:01:42.048Z,7.19
2022-12-09T22:04:16.409Z,7.00
2022-12-09T22:06:49.529Z,7.02
2022-12-09T22:09:18.795Z,7.08
2022-12-09T22:11:46.823Z,6.99
2022-12-09T22:14:14.703Z,7.12
2022-12-09T22:16:44.599Z,7.21
2022-12-09T22:19:17.905Z,7.04
2022-12-09T22:21:46.451Z,7.15
2022-12-09T22:24:15.195Z,7.19
2022-12-09T22:26:46.040Z,7.04
2022-12-09T22:29:16.140Z,7.02
2022-12-09T22:31:44.452Z,7.05
2022-12-09T22:34:18.047Z,7.18
2022-12-09T22:36:47.528Z,7.09
2022-12-09T22:39:18.322Z,7.18
2022-12-09T22:41:46.255Z,7.09
2022-12-09T22:44:18.716Z,7.10
2022-12-09T22:46:47.579Z,7.07
2022-12-09T22:49:15.712Z,7.15
2022-12-09T22:51:45.263Z,7.17
2022-12-09T22:54:13.799Z,7.19
2022-12-09T22:56:42.894Z,6.99
2022-12-09T22:59:11.325Z,7.09
2022-12-09T23:01:39.197Z,7.00
2022-12-09T23:04:08.360Z,6.97
2022-12-09T23:06:38.718Z,7.05
2022-12-09T23:09:08.404Z,7.09
2022-12-09T23:11:37.079Z,7.12
2022-12-09T23:14:04.667Z,7.18
2022-12-09T23:16:32.787Z,7.09
2022-12-09T23:19:01.852Z,6.97
2022-12-09T23:21:32.677Z,7.01
2022-12-09T23:24:03.782Z,7.14
2022-12-09T23:26:34.001Z,7.11
2022-12-09T23:29:02.454Z,7.08
2022-12-09T23:31:32.801Z,7.13
2022-12-09T23:34:02.417Z,7.05
2022-12-09T23:36:45.390Z,7.08
2022-12-09T23:39:16.059Z,6.86
2022-12-09T23:41:45.206Z,6.93
2022-12-09T23:44:16.064Z,6.75
2022-12-09T23:46:44.191Z,6.73
2022-12-09T23:49:12.011Z,6.80
2022-12-09T23:51:43.998Z,6.82
2022-12-09T23:54:14.788Z,6.80
2022-12-09T23:56:46.385Z,6.93
2022-12-09T23:59:14.633Z,7.02
